Time;durP1;ratioP1;P1;durP2;ratioP2;P2;SDS_P1;SDS_P2;PMS_P1;PMS_P2;Temp;Humidity;BMP_temperature;BMP_pressure;BME280_temperature;BME280_humidity;BME280_pressure;Samples;Min_cycle;Max_cycle;Signal;HPM_P1;HPM_P2
2022/07/10 00:00:25;;;;;;;;;2.00;2.00;;;;;22.37;41.15;102166.50;5013990;28;45279;-65
2022/07/10 00:02:52;;;;;;;;;4.00;2.67;;;;;22.35;40.90;102157.44;5013975;28;45466;-66
2022/07/10 00:05:18;;;;;;;;;2.00;2.00;;;;;22.34;41.04;102158.34;5013283;28;45385;-65
2022/07/10 00:07:43;;;;;;;;;3.00;3.00;;;;;22.32;41.00;102152.00;5013487;28;45387;-63
2022/07/10 00:10:09;;;;;;;;;3.00;3.00;;;;;22.29;41.27;102158.38;5013355;28;45365;-64
2022/07/10 00:12:35;;;;;;;;;3.67;3.33;;;;;22.11;41.21;102142.88;5012762;28;45451;-63
2022/07/10 00:15:00;;;;;;;;;8.00;7.67;;;;;22.18;41.42;102163.75;5013568;28;45417;-61
2022/07/10 00:17:26;;;;;;;;;10.67;8.00;;;;;22.17;41.49;102164.66;5013629;28;45324;-63
2022/07/10 00:19:51;;;;;;;;;26.75;18.75;;;;;22.14;41.51;102174.63;5013787;28;45418;-61
2022/07/10 00:22:16;;;;;;;;;24.25;22.00;;;;;21.98;41.77;102155.56;5013399;28;45500;-62
2022/07/10 00:24:42;;;;;;;;;21.75;21.00;;;;;21.89;42.08;102148.31;5013073;28;46121;-61
2022/07/10 00:27:07;;;;;;;;;28.00;23.25;;;;;22.01;41.98;102176.41;5011886;28;45462;-63
2022/07/10 00:29:32;;;;;;;;;26.50;23.75;;;;;21.90;42.21;102163.72;5013482;28;45280;-64
2022/07/10 00:31:58;;;;;;;;;20.50;9.75;;;;;21.95;42.55;102171.88;5013699;28;45910;-63
2022/07/10 00:34:23;;;;;;;;;17.25;16.25;;;;;21.82;42.71;102179.09;5013091;28;56758;-65
2022/07/10 00:36:48;;;;;;;;;13.50;13.50;;;;;21.72;42.87;102182.72;5013002;28;45423;-62
2022/07/10 00:39:14;;;;;;;;;17.25;14.25;;;;;21.79;42.84;102180.91;5013353;28;45466;-66
2022/07/10 00:41:39;;;;;;;;;12.00;12.00;;;;;21.59;43.23;102172.69;5013344;28;45291;-63
2022/07/10 00:44:04;;;;;;;;;13.33;13.33;;;;;21.58;43.48;102174.53;5012946;28;46085;-62
2022/07/10 00:46:33;;;;;;;;;11.00;9.67;;;;;21.56;43.46;102168.13;5013091;28;45512;-62
2022/07/10 00:48:58;;;;;;;;;7.33;7.33;;;;;21.52;43.69;102177.22;5013386;28;45411;-64
2022/07/10 00:51:26;;;;;;;;;6.00;5.00;;;;;21.40;44.13;102163.50;5013173;28;45505;-62
2022/07/10 00:53:52;;;;;;;;;7.67;5.33;;;;;20.99;44.13;102098.13;5013149;28;46154;-64
2022/07/10 00:56:21;;;;;;;;;4.67;4.67;;;;;21.34;44.60;102164.41;5012942;28;45415;-61
2022/07/10 00:58:47;;;;;;;;;10.00;6.00;;;;;21.28;44.50;102161.66;5013008;28;45319;-62
2022/07/10 01:01:13;;;;;;;;;5.33;4.00;;;;;21.14;44.34;102137.16;5013310;28;46067;-62
2022/07/10 01:03:39;;;;;;;;;6.00;4.00;;;;;21.25;44.58;102158.91;5011461;28;46453;-63
2022/07/10 01:06:04;;;;;;;;;2.33;2.00;;;;;21.15;44.96;102161.59;5013235;28;45427;-65
2022/07/10 01:08:30;;;;;;;;;2.67;2.00;;;;;21.11;44.76;102165.19;5013002;28;45228;-61
2022/07/10 01:10:55;;;;;;;;;4.00;2.00;;;;;21.06;45.18;102147.97;5013452;28;45320;-62
2022/07/10 01:13:21;;;;;;;;;2.00;2.00;;;;;21.06;45.26;102155.22;5012749;28;45343;-63
2022/07/10 01:15:47;;;;;;;;;6.00;3.00;;;;;21.09;45.32;102160.66;5012755;28;45381;-62
2022/07/10 01:18:14;;;;;;;;;1.00;1.00;;;;;20.95;45.13;102139.78;5013247;28;45391;-64
2022/07/10 01:20:39;;;;;;;;;6.67;6.67;;;;;20.64;45.46;102076.22;5013079;28;45357;-64
2022/07/10 01:23:04;;;;;;;;;1.00;1.00;;;;;20.95;45.51;102136.13;5012631;28;46175;-63
2022/07/10 01:25:30;;;;;;;;;1.67;1.00;;;;;21.06;45.05;102158.84;5013607;28;45459;-60
2022/07/10 01:27:55;;;;;;;;;2.67;2.67;;;;;21.03;45.59;102164.25;5015999;28;45428;-62
2022/07/10 01:30:21;;;;;;;;;3.00;3.00;;;;;21.01;45.70;102166.06;5016535;28;45382;-62
2022/07/10 01:32:47;;;;;;;;;6.00;5.00;;;;;20.98;46.14;102166.94;5016114;28;45431;-62
2022/07/10 01:35:13;;;;;;;;;3.00;2.00;;;;;20.95;45.97;102158.78;5016525;28;45410;-66
2022/07/10 01:37:40;;;;;;;;;4.00;2.67;;;;;20.93;45.76;102156.94;5016561;28;45574;-67
2022/07/10 01:40:06;;;;;;;;;1.33;1.33;;;;;20.95;45.81;102158.78;5016081;28;45523;-67
2022/07/10 01:42:32;;;;;;;;;4.00;2.33;;;;;20.99;45.92;102162.44;5016004;28;46320;-66
2022/07/10 01:44:57;;;;;;;;;4.00;2.33;;;;;20.97;45.92;102161.53;5015657;28;45663;-67
2022/07/10 01:47:27;;;;;;;;;2.00;2.00;;;;;20.89;45.97;102166.91;5016084;28;45478;-68
2022/07/10 01:49:53;;;;;;;;;2.00;2.00;;;;;20.87;46.36;102155.13;5016471;28;45424;-65
2022/07/10 01:52:19;;;;;;;;;3.67;3.00;;;;;20.91;46.28;102153.31;5015773;28;45528;-66
2022/07/10 01:54:45;;;;;;;;;3.67;2.00;;;;;20.89;46.18;102157.84;5016015;28;45407;-65
2022/07/10 01:57:11;;;;;;;;;3.67;3.67;;;;;20.86;46.13;102153.28;5015831;28;45419;-65
2022/07/10 01:59:36;;;;;;;;;2.33;2.33;;;;;20.83;46.17;102171.38;5016246;28;45324;-66
2022/07/10 02:02:01;;;;;;;;;2.67;2.67;;;;;20.81;46.59;102174.09;5021115;28;46267;-69
2022/07/10 02:04:42;;;;;;;;;2.00;2.00;;;;;20.69;46.87;102164.06;5015581;28;45411;-67
2022/07/10 02:07:08;;;;;;;;;3.00;2.00;;;;;20.41;46.84;102122.19;5016018;28;45283;-68
2022/07/10 02:09:33;;;;;;;;;2.00;2.00;;;;;20.66;46.64;102177.59;5009338;28;45501;-68
2022/07/10 02:11:58;;;;;;;;;3.00;3.00;;;;;20.61;46.91;102173.91;5015536;28;46069;-66
2022/07/10 02:14:24;;;;;;;;;1.33;1.33;;;;;20.52;46.93;102162.97;5015470;28;50598;-66
2022/07/10 02:16:49;;;;;;;;;2.00;2.00;;;;;20.49;46.90;102174.72;5015158;28;45828;-67
2022/07/10 02:19:14;;;;;;;;;3.67;2.00;;;;;20.04;46.99;102098.31;5016859;28;45346;-64
2022/07/10 02:21:40;;;;;;;;;2.00;2.00;;;;;20.01;46.96;102094.69;5016990;28;45449;-67
2022/07/10 02:24:05;;;;;;;;;3.00;2.00;;;;;20.38;46.73;102143.88;5015611;28;45576;-66
2022/07/10 02:26:30;;;;;;;;;2.33;2.00;;;;;20.12;46.66;102108.38;5015521;28;45497;-63
2022/07/10 02:28:56;;;;;;;;;1.33;1.00;;;;;20.45;46.84;102164.72;5015881;28;45429;-67
2022/07/10 02:31:21;;;;;;;;;5.67;3.00;;;;;20.37;47.06;102153.78;5015309;28;46153;-66
2022/07/10 02:33:46;;;;;;;;;3.00;3.00;;;;;20.27;47.13;102156.44;5015230;28;45529;-68
2022/07/10 02:36:12;;;;;;;;;2.00;2.00;;;;;20.22;47.47;102148.25;5014246;28;46956;-63
2022/07/10 02:38:37;;;;;;;;;2.00;2.00;;;;;19.82;47.47;102082.78;5015711;28;45291;-67
2022/07/10 02:41:02;;;;;;;;;3.00;3.00;;;;;20.18;47.69;102147.31;5015209;28;48846;-63
2022/07/10 02:43:28;;;;;;;;;2.33;1.33;;;;;20.16;47.68;102150.88;5015099;28;45497;-67
2022/07/10 02:45:53;;;;;;;;;3.67;1.67;;;;;19.82;47.51;102093.63;5015341;28;45436;-63
2022/07/10 02:48:18;;;;;;;;;3.67;3.67;;;;;20.13;47.65;102142.72;5015182;28;45548;-66
2022/07/10 02:50:44;;;;;;;;;5.67;3.00;;;;;20.14;47.52;102139.13;5015037;28;45792;-63
2022/07/10 02:53:09;;;;;;;;;2.00;2.00;;;;;20.15;47.47;102139.13;5014872;28;45370;-68
2022/07/10 02:55:35;;;;;;;;;3.67;3.00;;;;;20.08;47.62;102118.28;5014927;28;45411;-63
2022/07/10 02:58:00;;;;;;;;;4.00;3.00;;;;;20.14;47.66;102134.59;5015558;28;45408;-66
2022/07/10 03:00:27;;;;;;;;;4.00;2.00;;;;;19.99;47.55;102108.22;5015060;28;45441;-64
2022/07/10 03:02:54;;;;;;;;;2.00;2.00;;;;;20.13;47.70;102137.28;5014971;28;45434;-63
2022/07/10 03:05:19;;;;;;;;;2.67;2.67;;;;;20.13;47.72;102137.28;5014764;28;45493;-64
2022/07/10 03:07:44;;;;;;;;;2.33;2.33;;;;;20.12;47.72;102136.41;5015105;28;45430;-63
2022/07/10 03:10:12;;;;;;;;;2.33;2.33;;;;;20.15;47.42;102139.13;5014473;28;45411;-63
2022/07/10 03:12:38;;;;;;;;;5.00;4.00;;;;;20.12;47.65;102130.97;5014683;28;45414;-64
2022/07/10 03:15:05;;;;;;;;;4.00;4.00;;;;;20.13;47.59;102135.50;5014867;28;45366;-66
2022/07/10 03:17:31;;;;;;;;;3.67;2.33;;;;;20.15;47.66;102140.97;5014882;28;45337;-64
2022/07/10 03:19:56;;;;;;;;;1.00;1.00;;;;;20.15;47.60;102136.44;5014509;28;46109;-65
2022/07/10 03:22:21;;;;;;;;;3.33;3.33;;;;;20.10;47.84;102132.75;5015109;28;45754;-63
2022/07/10 03:24:47;;;;;;;;;4.00;3.00;;;;;20.07;47.84;102133.63;5013183;28;45474;-62
2022/07/10 03:27:13;;;;;;;;;5.67;2.67;;;;;19.90;47.80;102113.59;5015002;28;45613;-63
2022/07/10 03:29:39;;;;;;;;;3.33;3.33;;;;;19.91;48.10;102130.78;5014314;28;46894;-67
2022/07/10 03:32:05;;;;;;;;;3.00;3.00;;;;;19.96;48.02;102126.28;5014692;28;45423;-63
2022/07/10 03:34:30;;;;;;;;;2.00;2.00;;;;;19.96;48.10;102131.72;5014449;28;45351;-63
2022/07/10 03:36:55;;;;;;;;;3.00;3.00;;;;;19.95;48.31;102130.81;5014989;28;45554;-65
2022/07/10 03:39:21;;;;;;;;;3.00;3.00;;;;;19.74;48.22;102111.59;5014056;28;46121;-61
2022/07/10 03:41:46;;;;;;;;;5.00;3.00;;;;;19.84;48.40;102143.34;5013917;28;45360;-62
2022/07/10 03:44:12;;;;;;;;;3.00;3.00;;;;;19.82;48.60;102142.44;5014308;28;45328;-63
2022/07/10 03:46:37;;;;;;;;;1.00;1.00;;;;;19.63;48.73;102101.53;5014390;28;45384;-61
2022/07/10 03:49:03;;;;;;;;;4.00;3.00;;;;;19.80;48.71;102133.34;5014257;28;46066;-62
2022/07/10 03:51:28;;;;;;;;;4.67;3.00;;;;;19.77;48.68;102126.13;5014008;28;45347;-65
2022/07/10 03:53:53;;;;;;;;;4.00;4.00;;;;;19.77;48.72;102120.69;5014305;28;45562;-64
2022/07/10 03:59:02;;;;;;;;;4.00;4.00;;;;;19.01;48.75;102001.50;5009527;28;45908;-63
2022/07/10 04:01:28;;;;;;;;;4.33;3.00;;;;;19.70;49.00;102129.63;5013620;28;45511;-63
2022/07/10 04:03:53;;;;;;;;;3.67;3.67;;;;;19.68;48.79;102132.31;5013949;28;45462;-64
2022/07/10 04:06:18;;;;;;;;;3.00;3.00;;;;;19.63;49.17;102134.09;5012795;28;45427;-65
2022/07/10 04:08:44;;;;;;;;;4.00;4.00;;;;;19.52;49.34;102124.91;5013855;28;46059;-62
2022/07/10 04:11:09;;;;;;;;;2.00;2.00;;;;;19.57;49.35;102138.50;5014084;28;45360;-65
2022/07/10 04:13:34;;;;;;;;;5.33;5.00;;;;;19.39;49.31;102112.13;5013933;28;45306;-65
2022/07/10 04:16:00;;;;;;;;;3.00;3.00;;;;;19.57;49.38;102133.06;5013960;28;45363;-64
2022/07/10 04:18:25;;;;;;;;;6.67;3.00;;;;;19.60;49.37;102134.03;5013918;28;45277;-66
2022/07/10 04:20:50;;;;;;;;;6.00;3.33;;;;;19.58;49.22;102140.31;5011835;28;49403;-68
2022/07/10 04:23:15;;;;;;;;;4.33;4.33;;;;;19.61;49.16;102145.78;5013745;28;45312;-63
2022/07/10 04:25:41;;;;;;;;;3.00;3.00;;;;;19.60;49.21;102135.81;5013677;28;45628;-64
2022/07/10 04:28:06;;;;;;;;;5.33;4.33;;;;;19.60;49.40;102135.81;5013575;28;47299;-65
2022/07/10 04:30:31;;;;;;;;;3.50;3.50;;;;;19.61;49.33;102145.78;5013532;28;45422;-65
2022/07/10 04:32:57;;;;;;;;;3.00;3.00;;;;;19.62;49.45;102143.09;5013644;28;45369;-64
2022/07/10 04:35:22;;;;;;;;;6.00;4.00;;;;;19.54;49.66;102147.53;5013731;28;45361;-64
2022/07/10 04:37:48;;;;;;;;;3.00;3.00;;;;;19.48;49.64;102136.59;5013430;28;45337;-66
2022/07/10 04:40:13;;;;;;;;;2.67;2.67;;;;;19.48;49.54;102145.63;5013383;28;45335;-67
2022/07/10 04:42:38;;;;;;;;;4.33;3.67;;;;;19.50;49.28;102145.66;5013734;28;45943;-66
2022/07/10 04:45:04;;;;;;;;;4.67;3.67;;;;;19.47;49.65;102146.53;5013480;28;45551;-67
2022/07/10 04:47:30;;;;;;;;;4.67;3.33;;;;;19.48;49.42;102147.44;5013077;28;46223;-62
2022/07/10 04:49:55;;;;;;;;;4.00;4.00;;;;;19.47;49.40;102149.25;5013011;28;45732;-63
2022/07/10 04:52:20;;;;;;;;;5.67;4.67;;;;;19.45;49.32;102151.03;5013410;28;45518;-64
2022/07/10 04:54:45;;;;;;;;;3.00;3.00;;;;;19.42;49.72;102152.78;5013624;28;45533;-63
2022/07/10 04:57:11;;;;;;;;;5.67;2.00;;;;;19.37;49.76;102138.25;5012776;28;45526;-63
2022/07/10 04:59:36;;;;;;;;;5.00;4.00;;;;;19.37;49.30;102139.19;5015829;28;45455;-66
2022/07/10 05:02:02;;;;;;;;;4.33;2.67;;;;;19.37;49.54;102143.69;5016531;28;45323;-63
2022/07/10 05:04:27;;;;;;;;;3.67;3.67;;;;;19.34;49.62;102142.75;5017016;28;45511;-64
2022/07/10 05:06:52;;;;;;;;;3.00;3.00;;;;;19.37;49.34;102141.91;5001196;28;46502;-67
2022/07/10 05:09:19;;;;;;;;;7.00;5.67;;;;;19.29;49.58;102143.59;5016451;28;45529;-65
2022/07/10 05:11:45;;;;;;;;;8.00;5.00;;;;;19.26;49.87;102146.28;5016929;28;45533;-65
2022/07/10 05:14:11;;;;;;;;;4.00;3.67;;;;;18.30;49.72;102001.44;5016802;28;45501;-62
2022/07/10 05:16:36;;;;;;;;;4.00;3.00;;;;;19.27;49.90;102153.50;5016396;28;45570;-65
2022/07/10 05:19:01;;;;;;;;;2.67;2.67;;;;;19.07;49.86;102115.31;5016404;28;45349;-68
2022/07/10 05:21:27;;;;;;;;;1.00;1.00;;;;;19.24;49.87;102143.53;5016208;28;45447;-65
2022/07/10 05:23:52;;;;;;;;;4.00;4.00;;;;;19.26;49.64;102148.97;5016503;28;45352;-64
2022/07/10 05:26:18;;;;;;;;;4.00;3.00;;;;;19.30;49.61;102154.47;5016116;28;46940;-65
2022/07/10 05:28:43;;;;;;;;;3.00;3.00;;;;;19.31;49.64;102142.72;5016363;28;45498;-64
2022/07/10 05:31:08;;;;;;;;;4.00;3.00;;;;;19.29;49.43;102139.09;5016426;28;45477;-64
2022/07/10 05:33:34;;;;;;;;;6.33;4.00;;;;;19.37;49.49;102140.97;5016485;28;45578;-64
2022/07/10 05:35:59;;;;;;;;;7.00;5.00;;;;;19.38;49.16;102146.41;5016181;28;46060;-64
2022/07/10 05:38:24;;;;;;;;;3.00;2.00;;;;;19.40;49.43;102150.09;5016037;28;45478;-66
2022/07/10 05:40:50;;;;;;;;;3.67;3.33;;;;;19.32;49.15;102125.59;5015931;28;45426;-65
2022/07/10 05:43:16;;;;;;;;;4.00;3.33;;;;;19.49;49.18;102154.69;5016493;28;45383;-66
2022/07/10 05:45:41;;;;;;;;;7.00;3.67;;;;;19.55;48.90;102156.56;5016316;28;46116;-67
2022/07/10 05:48:06;;;;;;;;;5.00;3.00;;;;;19.45;48.70;102139.25;5015873;28;45431;-63
2022/07/10 05:50:32;;;;;;;;;3.00;3.00;;;;;19.59;48.59;102163.84;5031380;28;45297;-60
2022/07/10 05:52:57;;;;;;;;;4.00;4.00;;;;;19.64;48.55;102167.50;5016092;28;45454;-65
2022/07/10 05:55:23;;;;;;;;;4.33;3.67;;;;;19.62;48.36;102164.78;5015377;28;45454;-67
2022/07/10 05:57:50;;;;;;;;;3.67;3.67;;;;;19.60;48.18;102168.34;5015734;28;45475;-68
2022/07/10 06:00:15;;;;;;;;;4.67;4.00;;;;;19.56;47.98;102151.16;5015929;28;45584;-65
2022/07/10 06:02:40;;;;;;;;;2.00;2.00;;;;;19.69;47.93;102158.53;5016039;28;45327;-68
2022/07/10 06:05:07;;;;;;;;;6.67;4.67;;;;;19.76;48.01;102162.25;5015141;28;54418;-63
2022/07/10 06:07:33;;;;;;;;;2.67;2.67;;;;;19.81;47.72;102165.03;5015841;28;45515;-64
2022/07/10 06:09:58;;;;;;;;;3.33;3.33;;;;;19.68;47.40;102147.66;5014347;28;45314;-64
2022/07/10 06:12:23;;;;;;;;;4.00;3.33;;;;;19.77;47.49;102160.47;5015680;28;45469;-65
2022/07/10 06:14:48;;;;;;;;;4.33;3.00;;;;;19.78;47.48;102163.19;5015560;28;45480;-66
2022/07/10 06:17:14;;;;;;;;;3.00;3.00;;;;;19.83;47.35;102165.94;5015589;28;45489;-66
2022/07/10 06:19:39;;;;;;;;;2.33;2.33;;;;;19.87;47.01;102171.41;5015745;28;45513;-63
2022/07/10 06:24:49;;;;;;;;;5.33;4.00;;;;;19.86;47.02;102152.41;5014966;28;45817;-63
2022/07/10 06:27:14;;;;;;;;;2.67;2.67;;;;;19.89;46.95;102150.63;5013597;28;45464;-65
2022/07/10 06:29:39;;;;;;;;;2.33;2.33;;;;;19.95;46.92;102155.22;5015438;28;45585;-67
2022/07/10 06:32:05;;;;;;;;;2.33;2.33;;;;;19.99;46.28;102148.94;5015566;28;45489;-64
2022/07/10 06:34:31;;;;;;;;;1.33;1.33;;;;;20.06;46.50;102148.13;5015057;28;45987;-66
2022/07/10 06:36:56;;;;;;;;;2.00;2.00;;;;;20.14;46.24;102156.31;5015244;28;45460;-63
2022/07/10 06:39:21;;;;;;;;;2.00;2.00;;;;;20.19;46.13;102148.22;5015718;28;45618;-62
2022/07/10 06:41:47;;;;;;;;;5.00;4.00;;;;;19.91;45.96;102082.84;5015023;28;45253;-62
2022/07/10 06:44:12;;;;;;;;;3.00;3.00;;;;;19.98;45.45;102091.94;5015116;28;45814;-62
2022/07/10 06:46:37;;;;;;;;;2.67;2.00;;;;;20.41;45.28;102152.03;5013188;28;45485;-63
2022/07/10 06:49:03;;;;;;;;;2.00;2.00;;;;;20.43;44.71;102144.81;5014908;28;45462;-66
2022/07/10 06:51:29;;;;;;;;;4.67;3.33;;;;;20.51;44.99;102151.22;5015186;28;45583;-66
2022/07/10 06:53:56;;;;;;;;;3.00;3.00;;;;;20.56;44.55;102149.44;5008231;28;45914;-63
2022/07/10 06:56:24;;;;;;;;;4.00;3.00;;;;;20.61;44.14;102157.63;5014485;28;45563;-62
2022/07/10 06:58:50;;;;;;;;;3.00;2.00;;;;;20.46;44.15;102133.03;5014800;28;45480;-62
2022/07/10 07:01:15;;;;;;;;;1.33;1.33;;;;;20.67;43.72;102143.19;5014730;28;45477;-63
2022/07/10 07:03:40;;;;;;;;;7.00;3.67;;;;;20.81;43.84;102155.06;5014419;28;45386;-65
2022/07/10 07:06:06;;;;;;;;;2.33;2.33;;;;;20.91;43.76;102156.03;5014776;28;45334;-66
2022/07/10 07:08:32;;;;;;;;;3.33;2.67;;;;;20.88;43.19;102145.16;5014334;28;45331;-66
2022/07/10 07:10:57;;;;;;;;;4.00;2.00;;;;;21.01;42.92;102151.56;5014539;28;45415;-63
2022/07/10 07:13:23;;;;;;;;;3.33;1.33;;;;;21.01;42.79;102154.28;5014565;28;45818;-65
2022/07/10 07:15:58;;;;;;;;;1.00;1.00;;;;;21.04;42.68;102152.50;5014218;28;45427;-66
2022/07/10 07:18:31;;;;;;;;;4.00;2.00;;;;;21.12;42.55;102156.16;5014580;28;45589;-66
2022/07/10 07:23:40;;;;;;;;;2.33;2.00;;;;;21.32;42.17;102148.09;5014258;28;45951;-63
2022/07/10 07:26:06;;;;;;;;;4.33;2.00;;;;;21.34;41.75;102148.09;5014006;28;45427;-62
2022/07/10 07:28:31;;;;;;;;;3.67;3.00;;;;;21.39;41.89;102148.13;5014240;28;45403;-64
2022/07/10 07:30:59;;;;;;;;;2.67;1.00;;;;;21.47;41.67;102154.50;5014573;28;45366;-66
2022/07/10 07:33:24;;;;;;;;;1.67;1.00;;;;;21.56;41.62;102145.50;5014134;28;46100;-68
2022/07/10 07:35:50;;;;;;;;;2.00;2.00;;;;;21.56;41.67;102140.94;5014134;28;45365;-67
2022/07/10 07:38:15;;;;;;;;;2.67;2.33;;;;;21.57;41.25;102131.91;5014569;28;45445;-63
2022/07/10 07:40:41;;;;;;;;;3.00;2.00;;;;;21.65;41.29;102130.09;5014372;28;45530;-66
2022/07/10 07:43:07;;;;;;;;;2.00;2.00;;;;;21.76;41.17;102127.38;5014468;28;46014;-63
2022/07/10 07:45:32;;;;;;;;;2.00;2.00;;;;;21.85;41.15;102116.53;5014268;28;45514;-67
2022/07/10 07:47:59;;;;;;;;;2.67;2.00;;;;;21.94;40.33;102122.91;5014387;28;45292;-67
2022/07/10 07:50:31;;;;;;;;;2.67;2.67;;;;;21.97;40.44;102115.63;5014195;28;45439;-65
2022/07/10 07:52:57;;;;;;;;;3.67;2.33;;;;;21.93;40.00;102097.50;5013841;28;45990;-66
2022/07/10 07:55:23;;;;;;;;;4.00;1.00;;;;;22.05;39.79;102112.94;5013258;28;45416;-67
2022/07/10 07:57:53;;;;;;;;;1.00;1.00;;;;;22.13;40.10;102119.28;5020201;28;45321;-66
2022/07/10 08:00:22;;;;;;;;;6.00;4.33;;;;;22.08;41.42;102093.88;5014373;28;45312;-68
2022/07/10 08:02:49;;;;;;;;;4.00;4.00;;;;;22.32;40.90;102122.94;5013993;28;46230;-67
2022/07/10 08:05:15;;;;;;;;;5.00;2.67;;;;;22.41;40.39;102112.06;5013851;28;45411;-68
2022/07/10 08:07:46;;;;;;;;;3.00;3.00;;;;;22.59;39.28;102127.47;5013979;28;45434;-65
2022/07/10 08:10:14;;;;;;;;;3.00;3.00;;;;;22.70;38.89;102123.81;5013592;28;45496;-63
2022/07/10 08:12:41;;;;;;;;;2.00;2.00;;;;;22.77;38.88;102112.00;5013553;28;46345;-64
2022/07/10 08:15:11;;;;;;;;;4.00;3.00;;;;;22.93;38.96;102118.31;5013704;28;45364;-67
2022/07/10 08:17:37;;;;;;;;;2.00;2.00;;;;;23.03;38.23;102113.72;5013638;28;45449;-67
2022/07/10 08:20:05;;;;;;;;;3.67;2.00;;;;;23.07;37.53;102113.75;5013412;28;45344;-67
2022/07/10 08:22:30;;;;;;;;;2.00;2.00;;;;;23.10;37.94;102091.94;5013277;28;47291;-64
2022/07/10 08:24:58;;;;;;;;;2.67;1.33;;;;;23.24;37.49;102116.41;5013263;28;45405;-63
2022/07/10 08:27:23;;;;;;;;;3.33;3.33;;;;;23.35;37.59;102116.38;5013289;28;45449;-66
2022/07/10 08:29:49;;;;;;;;;3.33;2.33;;;;;23.42;37.40;102112.69;5012973;28;45437;-64
2022/07/10 08:32:14;;;;;;;;;4.00;2.67;;;;;23.47;37.00;102102.66;5012958;28;45441;-67
2022/07/10 08:34:40;;;;;;;;;2.00;2.00;;;;;23.40;36.58;102089.97;5012093;28;45269;-66
2022/07/10 08:37:05;;;;;;;;;4.00;2.33;;;;;23.57;36.41;102087.13;5013378;28;45427;-65
2022/07/10 08:39:31;;;;;;;;;2.00;2.00;;;;;23.78;36.23;102116.09;5012987;28;45336;-65
2022/07/10 08:41:57;;;;;;;;;8.67;5.00;;;;;23.86;36.44;102106.06;5010929;28;46614;-65
2022/07/10 08:44:22;;;;;;;;;1.67;1.67;;;;;23.96;36.27;102101.47;5011697;28;45580;-63
2022/07/10 08:46:48;;;;;;;;;3.00;3.00;;;;;24.03;35.03;102103.22;5012906;28;45798;-66
2022/07/10 08:49:16;;;;;;;;;3.00;3.00;;;;;24.07;35.34;102102.28;5013519;28;45413;-67
2022/07/10 08:51:52;;;;;;;;;2.33;2.33;;;;;23.81;35.21;102049.66;5012401;28;45352;-61
2022/07/10 08:54:18;;;;;;;;;2.00;2.00;;;;;24.13;34.62;102093.13;5012840;28;45394;-65
2022/07/10 08:56:44;;;;;;;;;2.33;2.33;;;;;24.17;34.57;102100.38;5012466;28;45447;-64
2022/07/10 08:59:13;;;;;;;;;2.33;2.33;;;;;24.15;35.11;102093.13;5012968;28;45344;-62
2022/07/10 09:01:39;;;;;;;;;3.00;3.00;;;;;24.18;35.00;102085.78;5012222;28;45878;-63
2022/07/10 09:04:04;;;;;;;;;5.00;3.00;;;;;24.27;34.65;102079.38;5012705;28;45481;-66
2022/07/10 09:06:30;;;;;;;;;3.33;3.33;;;;;24.19;34.99;102045.75;5013040;28;45668;-63
2022/07/10 09:09:05;;;;;;;;;3.33;3.33;;;;;24.47;34.24;102081.88;5013184;28;45435;-67
2022/07/10 09:11:32;;;;;;;;;3.00;3.00;;;;;24.60;34.02;102071.75;5012724;28;46177;-62
2022/07/10 09:14:04;;;;;;;;;3.33;2.00;;;;;24.62;33.95;102072.66;5012702;28;45333;-62
2022/07/10 09:16:32;;;;;;;;;5.33;4.00;;;;;24.58;33.57;102052.66;5012290;28;45268;-65
2022/07/10 09:19:13;;;;;;;;;2.00;2.00;;;;;24.69;33.83;102059.84;5012814;28;45482;-65
2022/07/10 09:21:39;;;;;;;;;4.67;2.33;;;;;24.75;33.38;102055.19;5012450;28;46197;-63
2022/07/10 09:24:08;;;;;;;;;28.67;19.67;;;;;24.78;33.72;102059.69;5012516;28;45437;-64
2022/07/10 09:26:33;;;;;;;;;3.00;3.00;;;;;24.88;33.21;102066.91;5012419;28;45406;-65
2022/07/10 09:29:09;;;;;;;;;5.00;3.00;;;;;24.95;33.22;102062.25;5012369;28;45443;-64
2022/07/10 09:31:55;;;;;;;;;1.67;1.67;;;;;24.97;33.25;102055.81;5012290;28;47264;-66
2022/07/10 09:34:39;;;;;;;;;2.00;2.00;;;;;24.75;32.89;102008.72;5006829;28;45366;-66
2022/07/10 09:37:22;;;;;;;;;2.00;2.00;;;;;25.17;32.67;102063.75;5012784;28;45491;-66
2022/07/10 09:39:55;;;;;;;;;2.00;2.00;;;;;25.23;32.20;102064.59;5012302;28;45289;-67
2022/07/10 09:42:30;;;;;;;;;2.00;2.00;;;;;25.26;32.30;102059.09;5011815;28;45484;-68
2022/07/10 09:45:13;;;;;;;;;3.67;3.67;;;;;25.31;32.32;102052.69;5009816;28;45474;-67
2022/07/10 09:47:51;;;;;;;;;7.33;4.67;;;;;25.29;31.99;102051.81;5011155;28;45335;-66
2022/07/10 09:50:33;;;;;;;;;2.00;2.00;;;;;25.27;32.05;102058.22;5015712;28;45409;-67
2022/07/10 09:53:03;;;;;;;;;1.67;1.67;;;;;25.35;31.45;102048.97;5015461;28;46082;-66
2022/07/10 09:55:34;;;;;;;;;4.33;2.00;;;;;25.38;31.87;102051.66;5015305;28;45280;-66
2022/07/10 09:58:09;;;;;;;;;2.00;2.00;;;;;25.32;31.85;102037.16;5015565;28;45319;-63
2022/07/10 10:00:40;;;;;;;;;2.00;1.00;;;;;25.48;31.55;102059.75;5021973;28;45641;-63
2022/07/10 10:03:08;;;;;;;;;2.00;2.00;;;;;25.42;31.74;102032.47;5009230;28;45486;-65
2022/07/10 10:05:43;;;;;;;;;1.67;1.67;;;;;25.49;31.19;102046.03;5014830;28;45501;-62
2022/07/10 10:08:12;;;;;;;;;3.67;1.67;;;;;25.44;31.80;102047.94;5014886;28;45466;-66
2022/07/10 10:10:44;;;;;;;;;2.00;2.00;;;;;25.50;31.29;102038.72;5015240;28;45567;-62
2022/07/10 10:13:11;;;;;;;;;2.00;2.00;;;;;25.56;31.66;102045.00;5014967;28;46248;-65
2022/07/10 10:15:38;;;;;;;;;1.67;1.67;;;;;25.55;31.10;102036.81;5030136;28;45942;-67
2022/07/10 10:18:03;;;;;;;;;3.00;3.00;;;;;25.59;31.11;102041.34;5015146;28;45510;-64
2022/07/10 10:20:37;;;;;;;;;1.00;1.00;;;;;25.60;31.11;102040.38;5014676;28;45556;-64
2022/07/10 10:23:04;;;;;;;;;3.00;2.00;;;;;25.61;30.89;102035.84;5014984;28;46300;-69
2022/07/10 10:25:33;;;;;;;;;2.00;2.00;;;;;25.62;31.14;102032.16;5014619;28;45606;-67
2022/07/10 10:28:06;;;;;;;;;2.00;1.00;;;;;25.47;31.43;102000.47;5014903;28;45410;-67
2022/07/10 10:30:32;;;;;;;;;3.00;3.00;;;;;25.65;31.43;102022.06;5013786;28;45448;-66
2022/07/10 10:32:59;;;;;;;;;5.00;3.33;;;;;25.52;31.72;101995.81;5014555;28;46054;-68
2022/07/10 10:35:48;;;;;;;;;2.00;1.00;;;;;25.69;31.68;102032.03;5014583;28;45473;-66
2022/07/10 10:38:15;;;;;;;;;3.00;3.00;;;;;25.61;31.70;102012.09;5014580;28;45363;-64
2022/07/10 10:40:40;;;;;;;;;2.00;2.00;;;;;25.76;31.82;102024.63;5014863;28;45351;-66
2022/07/10 10:43:23;;;;;;;;;5.00;2.00;;;;;25.75;31.27;102014.59;5029716;28;47664;-64
2022/07/10 10:45:49;;;;;;;;;2.00;2.00;;;;;25.73;31.84;102003.66;5008694;28;45233;-65
2022/07/10 10:48:17;;;;;;;;;2.67;2.00;;;;;25.51;31.76;101953.88;5013087;28;45367;-65
2022/07/10 10:50:42;;;;;;;;;3.00;3.00;;;;;25.90;32.05;102010.69;5008234;28;45237;-66
2022/07/10 10:53:15;;;;;;;;;2.00;2.00;;;;;25.91;31.46;102010.66;5013735;28;45465;-65
2022/07/10 10:55:41;;;;;;;;;2.67;2.67;;;;;25.93;31.47;102014.28;5008003;28;45664;-70
2022/07/10 10:58:18;;;;;;;;;1.67;1.67;;;;;25.93;31.81;102000.56;5014133;28;45444;-64
2022/07/10 11:00:43;;;;;;;;;1.33;1.33;;;;;25.93;31.61;102005.16;5014581;28;45546;-65
2022/07/10 11:03:17;;;;;;;;;3.00;3.00;;;;;25.82;31.30;101986.19;5014182;28;45926;-63
2022/07/10 11:05:44;;;;;;;;;6.00;4.67;;;;;25.91;32.04;101993.34;5014421;28;45567;-68
2022/07/10 11:08:10;;;;;;;;;2.33;2.00;;;;;25.92;31.77;101990.56;5014181;28;45394;-67
2022/07/10 11:10:43;;;;;;;;;3.33;3.00;;;;;25.91;32.05;101983.28;5014191;28;45415;-65
2022/07/10 11:13:14;;;;;;;;;3.00;3.00;;;;;25.92;32.11;101976.00;5014283;28;45533;-62
2022/07/10 11:15:42;;;;;;;;;3.00;3.00;;;;;25.97;32.20;101975.91;5013915;28;45436;-66
2022/07/10 11:18:18;;;;;;;;;3.67;3.00;;;;;26.00;31.83;101981.34;5014430;28;45466;-66
2022/07/10 11:20:53;;;;;;;;;3.00;2.00;;;;;25.74;32.01;101930.69;5014042;28;45368;-66
2022/07/10 11:23:36;;;;;;;;;1.67;1.67;;;;;26.00;32.03;101975.88;5013888;28;46146;-65
2022/07/10 11:26:12;;;;;;;;;4.00;2.00;;;;;25.92;32.03;101968.66;5013771;28;45453;-66
2022/07/10 11:28:37;;;;;;;;;2.33;2.33;;;;;25.96;32.33;101968.66;5008265;28;45307;-63
2022/07/10 11:31:02;;;;;;;;;3.67;2.67;;;;;25.70;32.21;101921.59;5014350;28;45380;-63